sensor_id;sensor_type;location;lat;lon;timestamp;temperature;humidity
45619;DHT22;31343;47.520;19.144;2023-02-26T00:02:17;5.40;99.90
45619;DHT22;31343;47.520;19.144;2023-02-26T00:04:43;5.30;99.90
45619;DHT22;31343;47.520;19.144;2023-02-26T00:07:09;5.30;99.90
45619;DHT22;31343;47.520;19.144;2023-02-26T00:09:35;5.40;99.90
45619;DHT22;31343;47.520;19.144;2023-02-26T00:12:01;5.40;99.90
45619;DHT22;31343;47.520;19.144;2023-02-26T00:14:27;5.30;99.90
45619;DHT22;31343;47.520;19.144;2023-02-26T00:17:25;5.30;99.90
45619;DHT22;31343;47.520;19.144;2023-02-26T00:19:54;5.30;99.90
45619;DHT22;31343;47.520;19.144;2023-02-26T00:22:20;5.10;99.90
45619;DHT22;31343;47.520;19.144;2023-02-26T00:24:46;5.00;99.90
45619;DHT22;31343;47.520;19.144;2023-02-26T00:27:11;5.10;99.90
45619;DHT22;31343;47.520;19.144;2023-02-26T00:29:38;5.10;99.90
45619;DHT22;31343;47.520;19.144;2023-02-26T00:32:04;5.00;99.90
45619;DHT22;31343;47.520;19.144;2023-02-26T00:34:30;5.10;99.90
45619;DHT22;31343;47.520;19.144;2023-02-26T00:37:26;5.10;99.90
45619;DHT22;31343;47.520;19.144;2023-02-26T00:40:17;5.00;99.90
45619;DHT22;31343;47.520;19.144;2023-02-26T00:42:45;5.00;99.90
45619;DHT22;31343;47.520;19.144;2023-02-26T00:45:12;5.00;99.90
45619;DHT22;31343;47.520;19.144;2023-02-26T00:47:59;5.00;99.90
45619;DHT22;31343;47.520;19.144;2023-02-26T00:50:32;5.00;99.90
45619;DHT22;31343;47.520;19.144;2023-02-26T00:55:41;5.00;99.90
45619;DHT22;31343;47.520;19.144;2023-02-26T00:58:07;5.10;99.90
45619;DHT22;31343;47.520;19.144;2023-02-26T01:00:33;5.00;99.90
45619;DHT22;31343;47.520;19.144;2023-02-26T01:02:59;5.10;99.90
45619;DHT22;31343;47.520;19.144;2023-02-26T01:05:25;5.10;99.90
45619;DHT22;31343;47.520;19.144;2023-02-26T01:07:53;5.10;99.90
45619;DHT22;31343;47.520;19.144;2023-02-26T01:10:21;5.00;99.90
45619;DHT22;31343;47.520;19.144;2023-02-26T01:12:47;5.00;99.90
45619;DHT22;31343;47.520;19.144;2023-02-26T01:15:14;4.90;99.90
45619;DHT22;31343;47.520;19.144;2023-02-26T01:17:54;4.90;99.90
45619;DHT22;31343;47.520;19.144;2023-02-26T01:20:30;5.00;99.90
45619;DHT22;31343;47.520;19.144;2023-02-26T01:23:04;5.00;99.90
45619;DHT22;31343;47.520;19.144;2023-02-26T01:25:47;5.00;99.90
45619;DHT22;31343;47.520;19.144;2023-02-26T01:28:15;5.00;99.90
45619;DHT22;31343;47.520;19.144;2023-02-26T01:30:42;4.90;99.90
45619;DHT22;31343;47.520;19.144;2023-02-26T01:33:16;4.90;99.90
45619;DHT22;31343;47.520;19.144;2023-02-26T01:41:27;4.90;99.90
45619;DHT22;31343;47.520;19.144;2023-02-26T01:44:22;4.90;99.90
45619;DHT22;31343;47.520;19.144;2023-02-26T01:47:10;4.90;99.90
45619;DHT22;31343;47.520;19.144;2023-02-26T01:49:38;4.90;99.90
45619;DHT22;31343;47.520;19.144;2023-02-26T01:52:06;4.90;99.90
45619;DHT22;31343;47.520;19.144;2023-02-26T01:54:35;4.90;99.90
45619;DHT22;31343;47.520;19.144;2023-02-26T01:57:10;4.90;99.90
45619;DHT22;31343;47.520;19.144;2023-02-26T01:59:40;4.90;99.90
45619;DHT22;31343;47.520;19.144;2023-02-26T02:02:08;4.90;99.90
45619;DHT22;31343;47.520;19.144;2023-02-26T02:04:35;4.80;99.90
45619;DHT22;31343;47.520;19.144;2023-02-26T02:07:03;4.80;99.90
45619;DHT22;31343;47.520;19.144;2023-02-26T02:09:29;4.60;99.90
45619;DHT22;31343;47.520;19.144;2023-02-26T02:31:43;4.60;99.90
45619;DHT22;31343;47.520;19.144;2023-02-26T02:34:15;4.60;99.90
45619;DHT22;31343;47.520;19.144;2023-02-26T02:36:50;4.50;99.90
45619;DHT22;31343;47.520;19.144;2023-02-26T02:39:29;4.30;99.90
45619;DHT22;31343;47.520;19.144;2023-02-26T02:42:02;4.40;99.90
45619;DHT22;31343;47.520;19.144;2023-02-26T02:44:31;4.50;99.90
45619;DHT22;31343;47.520;19.144;2023-02-26T02:46:59;4.50;99.90
45619;DHT22;31343;47.520;19.144;2023-02-26T02:52:04;4.50;99.90
45619;DHT22;31343;47.520;19.144;2023-02-26T02:54:37;4.50;99.90
45619;DHT22;31343;47.520;19.144;2023-02-26T03:00:10;4.40;99.90
45619;DHT22;31343;47.520;19.144;2023-02-26T03:05:25;4.50;99.90
45619;DHT22;31343;47.520;19.144;2023-02-26T03:08:30;4.40;99.90
45619;DHT22;31343;47.520;19.144;2023-02-26T03:10:49;4.40;99.90
45619;DHT22;31343;47.520;19.144;2023-02-26T03:13:23;4.40;99.90
45619;DHT22;31343;47.520;19.144;2023-02-26T03:18:59;4.60;99.90
45619;DHT22;31343;47.520;19.144;2023-02-26T03:21:38;4.40;99.90
45619;DHT22;31343;47.520;19.144;2023-02-26T03:26:51;4.30;99.90
45619;DHT22;31343;47.520;19.144;2023-02-26T03:29:30;4.40;99.90
45619;DHT22;31343;47.520;19.144;2023-02-26T03:32:02;4.40;99.90
45619;DHT22;31343;47.520;19.144;2023-02-26T03:34:47;4.30;99.90
45619;DHT22;31343;47.520;19.144;2023-02-26T03:37:42;4.30;99.90
45619;DHT22;31343;47.520;19.144;2023-02-26T03:40:14;4.40;99.90
45619;DHT22;31343;47.520;19.144;2023-02-26T03:45:39;4.30;99.90
45619;DHT22;31343;47.520;19.144;2023-02-26T03:48:09;4.30;99.90
45619;DHT22;31343;47.520;19.144;2023-02-26T03:50:39;4.30;99.90
45619;DHT22;31343;47.520;19.144;2023-02-26T03:53:11;4.30;99.90
45619;DHT22;31343;47.520;19.144;2023-02-26T03:55:49;4.20;99.90
45619;DHT22;31343;47.520;19.144;2023-02-26T03:58:15;4.20;99.90
45619;DHT22;31343;47.520;19.144;2023-02-26T04:00:43;4.20;99.90
45619;DHT22;31343;47.520;19.144;2023-02-26T04:05:45;4.20;99.90
45619;DHT22;31343;47.520;19.144;2023-02-26T04:08:12;4.20;99.90
45619;DHT22;31343;47.520;19.144;2023-02-26T04:10:44;4.10;99.90
45619;DHT22;31343;47.520;19.144;2023-02-26T04:13:11;4.20;99.90
45619;DHT22;31343;47.520;19.144;2023-02-26T04:15:37;4.20;99.90
45619;DHT22;31343;47.520;19.144;2023-02-26T04:18:02;4.20;99.90
45619;DHT22;31343;47.520;19.144;2023-02-26T04:20:28;4.10;99.90
45619;DHT22;31343;47.520;19.144;2023-02-26T04:22:54;4.10;99.90
45619;DHT22;31343;47.520;19.144;2023-02-26T04:25:20;4.10;99.90
45619;DHT22;31343;47.520;19.144;2023-02-26T04:27:45;4.10;99.90
45619;DHT22;31343;47.520;19.144;2023-02-26T04:30:11;4.10;99.90
45619;DHT22;31343;47.520;19.144;2023-02-26T04:32:37;4.20;99.90
45619;DHT22;31343;47.520;19.144;2023-02-26T04:35:03;4.10;99.90
45619;DHT22;31343;47.520;19.144;2023-02-26T04:37:29;4.10;99.90
45619;DHT22;31343;47.520;19.144;2023-02-26T04:39:55;4.10;99.90
45619;DHT22;31343;47.520;19.144;2023-02-26T04:42:21;4.20;99.90
45619;DHT22;31343;47.520;19.144;2023-02-26T04:44:47;4.20;99.90
45619;DHT22;31343;47.520;19.144;2023-02-26T04:47:13;4.10;99.90
45619;DHT22;31343;47.520;19.144;2023-02-26T04:49:39;4.00;99.90
45619;DHT22;31343;47.520;19.144;2023-02-26T04:52:05;3.90;99.90
45619;DHT22;31343;47.520;19.144;2023-02-26T04:54:30;3.90;99.90
45619;DHT22;31343;47.520;19.144;2023-02-26T04:56:56;3.90;99.90
45619;DHT22;31343;47.520;19.144;2023-02-26T04:59:22;3.90;99.90
45619;DHT22;31343;47.520;19.144;2023-02-26T05:01:49;4.00;99.90
45619;DHT22;31343;47.520;19.144;2023-02-26T05:04:14;3.90;99.90
45619;DHT22;31343;47.520;19.144;2023-02-26T05:06:40;3.90;99.90
45619;DHT22;31343;47.520;19.144;2023-02-26T05:09:06;3.90;99.90
45619;DHT22;31343;47.520;19.144;2023-02-26T05:11:32;4.00;99.90
45619;DHT22;31343;47.520;19.144;2023-02-26T05:13:58;3.90;99.90
45619;DHT22;31343;47.520;19.144;2023-02-26T05:16:24;3.90;99.90
45619;DHT22;31343;47.520;19.144;2023-02-26T05:18:49;3.90;99.90
45619;DHT22;31343;47.520;19.144;2023-02-26T05:21:15;4.00;99.90
45619;DHT22;31343;47.520;19.144;2023-02-26T05:23:41;3.90;99.90
45619;DHT22;31343;47.520;19.144;2023-02-26T05:26:07;3.90;99.90
45619;DHT22;31343;47.520;19.144;2023-02-26T05:28:33;3.90;99.90
45619;DHT22;31343;47.520;19.144;2023-02-26T05:30:58;3.90;99.90
45619;DHT22;31343;47.520;19.144;2023-02-26T05:33:25;3.80;99.90
45619;DHT22;31343;47.520;19.144;2023-02-26T05:35:51;3.70;99.90
45619;DHT22;31343;47.520;19.144;2023-02-26T05:38:17;3.70;99.90
45619;DHT22;31343;47.520;19.144;2023-02-26T05:40:43;3.70;99.90
45619;DHT22;31343;47.520;19.144;2023-02-26T05:43:08;3.70;99.90
45619;DHT22;31343;47.520;19.144;2023-02-26T05:45:34;3.90;99.90
45619;DHT22;31343;47.520;19.144;2023-02-26T05:48:00;3.90;99.90
45619;DHT22;31343;47.520;19.144;2023-02-26T05:50:26;3.80;99.90
45619;DHT22;31343;47.520;19.144;2023-02-26T05:52:52;3.80;99.90
45619;DHT22;31343;47.520;19.144;2023-02-26T05:55:18;4.00;99.90
45619;DHT22;31343;47.520;19.144;2023-02-26T05:57:44;3.90;99.90
45619;DHT22;31343;47.520;19.144;2023-02-26T06:00:10;3.80;99.90
45619;DHT22;31343;47.520;19.144;2023-02-26T06:02:36;3.80;99.90
45619;DHT22;31343;47.520;19.144;2023-02-26T06:05:02;3.80;99.90
45619;DHT22;31343;47.520;19.144;2023-02-26T06:07:28;3.70;99.90
45619;DHT22;31343;47.520;19.144;2023-02-26T06:09:53;3.80;99.90
45619;DHT22;31343;47.520;19.144;2023-02-26T06:12:19;3.80;99.90
45619;DHT22;31343;47.520;19.144;2023-02-26T06:14:45;3.80;99.90
45619;DHT22;31343;47.520;19.144;2023-02-26T06:17:10;3.80;99.90
45619;DHT22;31343;47.520;19.144;2023-02-26T06:19:36;3.80;99.90
45619;DHT22;31343;47.520;19.144;2023-02-26T06:22:02;3.80;99.90
45619;DHT22;31343;47.520;19.144;2023-02-26T06:24:28;3.90;99.90
45619;DHT22;31343;47.520;19.144;2023-02-26T06:26:53;3.90;99.90
45619;DHT22;31343;47.520;19.144;2023-02-26T06:29:19;3.90;99.90
45619;DHT22;31343;47.520;19.144;2023-02-26T06:31:46;4.00;99.90
45619;DHT22;31343;47.520;19.144;2023-02-26T06:34:12;3.90;99.90
45619;DHT22;31343;47.520;19.144;2023-02-26T06:36:38;3.70;99.90
45619;DHT22;31343;47.520;19.144;2023-02-26T06:39:03;3.80;99.90
45619;DHT22;31343;47.520;19.144;2023-02-26T06:41:29;3.90;99.90
45619;DHT22;31343;47.520;19.144;2023-02-26T06:43:55;3.80;99.90
45619;DHT22;31343;47.520;19.144;2023-02-26T06:46:21;4.00;99.90
45619;DHT22;31343;47.520;19.144;2023-02-26T06:48:46;4.10;99.90
45619;DHT22;31343;47.520;19.144;2023-02-26T06:51:12;4.20;99.90
45619;DHT22;31343;47.520;19.144;2023-02-26T06:53:38;4.20;99.90
45619;DHT22;31343;47.520;19.144;2023-02-26T06:56:04;4.20;99.90
45619;DHT22;31343;47.520;19.144;2023-02-26T06:58:30;4.20;99.90
45619;DHT22;31343;47.520;19.144;2023-02-26T07:00:55;4.30;99.90
45619;DHT22;31343;47.520;19.144;2023-02-26T07:03:21;4.40;99.90
45619;DHT22;31343;47.520;19.144;2023-02-26T07:05:47;4.50;99.90
45619;DHT22;31343;47.520;19.144;2023-02-26T07:08:13;4.60;99.90
45619;DHT22;31343;47.520;19.144;2023-02-26T07:10:40;4.60;99.90
45619;DHT22;31343;47.520;19.144;2023-02-26T07:13:06;4.70;99.90
45619;DHT22;31343;47.520;19.144;2023-02-26T07:15:32;4.70;99.90
45619;DHT22;31343;47.520;19.144;2023-02-26T07:17:58;4.70;99.90
45619;DHT22;31343;47.520;19.144;2023-02-26T07:20:27;4.50;99.90
45619;DHT22;31343;47.520;19.144;2023-02-26T07:22:54;4.60;99.90
45619;DHT22;31343;47.520;19.144;2023-02-26T07:25:19;4.70;99.90
45619;DHT22;31343;47.520;19.144;2023-02-26T07:27:46;4.90;99.90
45619;DHT22;31343;47.520;19.144;2023-02-26T07:30:12;4.80;99.90
45619;DHT22;31343;47.520;19.144;2023-02-26T07:32:38;4.90;99.90
45619;DHT22;31343;47.520;19.144;2023-02-26T07:35:05;5.00;99.90
45619;DHT22;31343;47.520;19.144;2023-02-26T07:37:30;5.10;99.90
45619;DHT22;31343;47.520;19.144;2023-02-26T07:39:56;5.20;99.90
45619;DHT22;31343;47.520;19.144;2023-02-26T07:42:22;5.30;99.90
45619;DHT22;31343;47.520;19.144;2023-02-26T07:44:48;5.50;99.90
45619;DHT22;31343;47.520;19.144;2023-02-26T07:47:14;6.00;99.90
45619;DHT22;31343;47.520;19.144;2023-02-26T07:49:39;6.40;99.90
45619;DHT22;31343;47.520;19.144;2023-02-26T07:52:05;6.50;99.90
45619;DHT22;31343;47.520;19.144;2023-02-26T07:54:36;6.40;99.90
45619;DHT22;31343;47.520;19.144;2023-02-26T07:57:02;6.40;99.90
45619;DHT22;31343;47.520;19.144;2023-02-26T07:59:28;6.40;99.90
45619;DHT22;31343;47.520;19.144;2023-02-26T08:01:54;6.40;99.90
45619;DHT22;31343;47.520;19.144;2023-02-26T08:04:20;6.30;99.90
45619;DHT22;31343;47.520;19.144;2023-02-26T08:06:46;6.40;99.90
45619;DHT22;31343;47.520;19.144;2023-02-26T08:09:12;6.30;99.90
45619;DHT22;31343;47.520;19.144;2023-02-26T08:11:38;6.40;99.90
45619;DHT22;31343;47.520;19.144;2023-02-26T08:14:06;6.40;99.90
45619;DHT22;31343;47.520;19.144;2023-02-26T08:16:32;6.40;99.90
45619;DHT22;31343;47.520;19.144;2023-02-26T08:18:59;6.50;99.90
45619;DHT22;31343;47.520;19.144;2023-02-26T08:21:25;6.50;99.90
45619;DHT22;31343;47.520;19.144;2023-02-26T08:23:50;6.80;99.90
45619;DHT22;31343;47.520;19.144;2023-02-26T08:26:17;6.40;99.90
45619;DHT22;31343;47.520;19.144;2023-02-26T08:28:43;6.30;99.90
45619;DHT22;31343;47.520;19.144;2023-02-26T08:31:11;6.30;99.90
45619;DHT22;31343;47.520;19.144;2023-02-26T08:33:37;6.40;99.90
45619;DHT22;31343;47.520;19.144;2023-02-26T08:36:03;6.50;99.90
45619;DHT22;31343;47.520;19.144;2023-02-26T08:38:29;6.40;99.90
45619;DHT22;31343;47.520;19.144;2023-02-26T08:40:55;6.30;99.90
45619;DHT22;31343;47.520;19.144;2023-02-26T08:43:21;6.20;99.90
45619;DHT22;31343;47.520;19.144;2023-02-26T08:45:47;6.30;99.90
45619;DHT22;31343;47.520;19.144;2023-02-26T08:48:14;6.40;99.90
45619;DHT22;31343;47.520;19.144;2023-02-26T08:50:40;6.40;99.90
45619;DHT22;31343;47.520;19.144;2023-02-26T08:53:06;6.50;99.90
45619;DHT22;31343;47.520;19.144;2023-02-26T08:55:31;6.50;99.90
45619;DHT22;31343;47.520;19.144;2023-02-26T08:57:58;6.60;99.90
45619;DHT22;31343;47.520;19.144;2023-02-26T09:00:23;6.70;99.90
45619;DHT22;31343;47.520;19.144;2023-02-26T09:02:49;6.80;99.90
45619;DHT22;31343;47.520;19.144;2023-02-26T09:05:16;6.80;99.90
45619;DHT22;31343;47.520;19.144;2023-02-26T09:07:42;6.80;99.90
45619;DHT22;31343;47.520;19.144;2023-02-26T09:10:08;6.70;99.90
45619;DHT22;31343;47.520;19.144;2023-02-26T09:12:34;6.80;99.90
45619;DHT22;31343;47.520;19.144;2023-02-26T09:15:02;6.90;99.50
45619;DHT22;31343;47.520;19.144;2023-02-26T09:17:29;7.00;99.70
45619;DHT22;31343;47.520;19.144;2023-02-26T09:19:54;7.00;99.50
45619;DHT22;31343;47.520;19.144;2023-02-26T09:22:20;6.90;99.30
45619;DHT22;31343;47.520;19.144;2023-02-26T09:24:46;7.10;99.40
45619;DHT22;31343;47.520;19.144;2023-02-26T09:27:12;7.30;99.20
45619;DHT22;31343;47.520;19.144;2023-02-26T09:29:37;7.30;98.80
45619;DHT22;31343;47.520;19.144;2023-02-26T09:32:03;7.20;99.00
45619;DHT22;31343;47.520;19.144;2023-02-26T09:34:36;7.30;98.50
45619;DHT22;31343;47.520;19.144;2023-02-26T09:37:04;7.30;97.90
45619;DHT22;31343;47.520;19.144;2023-02-26T09:39:30;7.30;97.70
45619;DHT22;31343;47.520;19.144;2023-02-26T09:42:03;7.40;97.70
45619;DHT22;31343;47.520;19.144;2023-02-26T09:44:34;7.40;97.80
45619;DHT22;31343;47.520;19.144;2023-02-26T09:47:17;7.50;97.80
45619;DHT22;31343;47.520;19.144;2023-02-26T09:54:57;7.50;97.80
45619;DHT22;31343;47.520;19.144;2023-02-26T09:57:31;7.60;97.40
45619;DHT22;31343;47.520;19.144;2023-02-26T09:59:58;7.80;97.30
45619;DHT22;31343;47.520;19.144;2023-02-26T10:02:41;7.80;96.60
45619;DHT22;31343;47.520;19.144;2023-02-26T10:05:52;7.80;96.80
45619;DHT22;31343;47.520;19.144;2023-02-26T10:08:17;7.90;96.80
45619;DHT22;31343;47.520;19.144;2023-02-26T10:13:53;7.90;96.80
45619;DHT22;31343;47.520;19.144;2023-02-26T10:16:26;7.70;96.80
45619;DHT22;31343;47.520;19.144;2023-02-26T10:18:58;7.80;97.50
45619;DHT22;31343;47.520;19.144;2023-02-26T10:21:38;8.00;96.90
45619;DHT22;31343;47.520;19.144;2023-02-26T10:24:12;8.00;97.10
45619;DHT22;31343;47.520;19.144;2023-02-26T10:26:44;8.10;97.30
45619;DHT22;31343;47.520;19.144;2023-02-26T10:37:58;8.60;96.70
45619;DHT22;31343;47.520;19.144;2023-02-26T10:43:13;8.70;96.70
45619;DHT22;31343;47.520;19.144;2023-02-26T10:51:34;8.90;96.30
45619;DHT22;31343;47.520;19.144;2023-02-26T10:56:47;8.80;96.00
45619;DHT22;31343;47.520;19.144;2023-02-26T10:59:13;9.00;96.20
45619;DHT22;31343;47.520;19.144;2023-02-26T11:01:38;9.20;96.00
45619;DHT22;31343;47.520;19.144;2023-02-26T11:04:06;9.40;95.80
45619;DHT22;31343;47.520;19.144;2023-02-26T11:06:41;9.50;95.70
45619;DHT22;31343;47.520;19.144;2023-02-26T11:09:42;9.60;95.10
45619;DHT22;31343;47.520;19.144;2023-02-26T11:12:13;9.40;94.80
45619;DHT22;31343;47.520;19.144;2023-02-26T11:14:41;9.30;95.00
45619;DHT22;31343;47.520;19.144;2023-02-26T11:17:16;9.20;95.10
45619;DHT22;31343;47.520;19.144;2023-02-26T11:19:55;9.10;95.40
45619;DHT22;31343;47.520;19.144;2023-02-26T11:22:21;8.70;95.70
45619;DHT22;31343;47.520;19.144;2023-02-26T11:24:48;7.90;97.10
45619;DHT22;31343;47.520;19.144;2023-02-26T11:27:21;7.60;97.90
45619;DHT22;31343;47.520;19.144;2023-02-26T11:29:55;7.70;98.30
45619;DHT22;31343;47.520;19.144;2023-02-26T11:32:31;7.50;98.20
45619;DHT22;31343;47.520;19.144;2023-02-26T11:34:57;7.80;98.80
45619;DHT22;31343;47.520;19.144;2023-02-26T11:37:33;8.00;97.70
45619;DHT22;31343;47.520;19.144;2023-02-26T11:43:04;8.40;97.30
45619;DHT22;31343;47.520;19.144;2023-02-26T11:45:30;8.40;96.50
45619;DHT22;31343;47.520;19.144;2023-02-26T11:48:05;8.20;97.30
45619;DHT22;31343;47.520;19.144;2023-02-26T11:50:45;8.50;96.70
45619;DHT22;31343;47.520;19.144;2023-02-26T11:53:17;8.90;96.50
45619;DHT22;31343;47.520;19.144;2023-02-26T11:55:51;8.90;96.60
45619;DHT22;31343;47.520;19.144;2023-02-26T11:58:23;9.10;96.30
45619;DHT22;31343;47.520;19.144;2023-02-26T12:00:53;9.20;95.20
45619;DHT22;31343;47.520;19.144;2023-02-26T12:03:21;9.30;95.60
45619;DHT22;31343;47.520;19.144;2023-02-26T12:05:49;9.30;95.00
45619;DHT22;31343;47.520;19.144;2023-02-26T12:08:28;9.50;94.90
45619;DHT22;31343;47.520;19.144;2023-02-26T12:11:27;9.60;94.40
45619;DHT22;31343;47.520;19.144;2023-02-26T12:19:40;9.10;94.80
45619;DHT22;31343;47.520;19.144;2023-02-26T12:25:21;8.80;95.50
45619;DHT22;31343;47.520;19.144;2023-02-26T12:28:26;8.50;95.40
45619;DHT22;31343;47.520;19.144;2023-02-26T12:39:08;9.20;95.30
45619;DHT22;31343;47.520;19.144;2023-02-26T12:41:51;9.40;95.40
45619;DHT22;31343;47.520;19.144;2023-02-26T12:53:41;8.70;96.50
45619;DHT22;31343;47.520;19.144;2023-02-26T12:58:52;8.30;96.90
45619;DHT22;31343;47.520;19.144;2023-02-26T13:09:39;7.90;97.20
45619;DHT22;31343;47.520;19.144;2023-02-26T13:15:21;7.40;98.00
45619;DHT22;31343;47.520;19.144;2023-02-26T13:20:34;7.50;98.50
45619;DHT22;31343;47.520;19.144;2023-02-26T13:23:19;7.50;98.40
45619;DHT22;31343;47.520;19.144;2023-02-26T13:25:53;7.50;98.60
45619;DHT22;31343;47.520;19.144;2023-02-26T13:30:52;7.70;99.30
45619;DHT22;31343;47.520;19.144;2023-02-26T13:33:23;7.80;98.60
45619;DHT22;31343;47.520;19.144;2023-02-26T13:35:52;7.90;98.70
45619;DHT22;31343;47.520;19.144;2023-02-26T13:38:47;7.60;97.80
45619;DHT22;31343;47.520;19.144;2023-02-26T13:41:56;7.50;98.10
45619;DHT22;31343;47.520;19.144;2023-02-26T13:44:32;7.40;98.10
45619;DHT22;31343;47.520;19.144;2023-02-26T13:52:26;7.30;97.10
45619;DHT22;31343;47.520;19.144;2023-02-26T13:54:52;7.00;96.70
45619;DHT22;31343;47.520;19.144;2023-02-26T13:57:32;7.10;97.00
45619;DHT22;31343;47.520;19.144;2023-02-26T14:00:26;7.10;96.80
45619;DHT22;31343;47.520;19.144;2023-02-26T14:02:53;7.00;97.00
45619;DHT22;31343;47.520;19.144;2023-02-26T14:16:40;7.10;98.00
45619;DHT22;31343;47.520;19.144;2023-02-26T14:21:48;6.90;98.40
45619;DHT22;31343;47.520;19.144;2023-02-26T14:27:03;7.10;98.60
45619;DHT22;31343;47.520;19.144;2023-02-26T14:29:40;7.20;98.80
45619;DHT22;31343;47.520;19.144;2023-02-26T14:32:14;7.30;98.10
45619;DHT22;31343;47.520;19.144;2023-02-26T14:34:51;7.20;98.10
45619;DHT22;31343;47.520;19.144;2023-02-26T14:37:23;7.10;97.70
45619;DHT22;31343;47.520;19.144;2023-02-26T14:39:59;7.10;98.40
45619;DHT22;31343;47.520;19.144;2023-02-26T14:42:40;7.10;97.80
45619;DHT22;31343;47.520;19.144;2023-02-26T14:45:12;7.00;97.70
45619;DHT22;31343;47.520;19.144;2023-02-26T14:47:45;7.10;97.70
45619;DHT22;31343;47.520;19.144;2023-02-26T14:50:20;7.10;97.80
45619;DHT22;31343;47.520;19.144;2023-02-26T14:55:31;7.00;97.50
45619;DHT22;31343;47.520;19.144;2023-02-26T15:05:53;6.90;97.60
45619;DHT22;31343;47.520;19.144;2023-02-26T15:08:40;6.80;97.30
45619;DHT22;31343;47.520;19.144;2023-02-26T15:11:23;6.90;97.60
45619;DHT22;31343;47.520;19.144;2023-02-26T15:20:50;6.70;96.60
45619;DHT22;31343;47.520;19.144;2023-02-26T15:25:26;6.60;96.70
45619;DHT22;31343;47.520;19.144;2023-02-26T15:27:53;6.60;96.90
45619;DHT22;31343;47.520;19.144;2023-02-26T15:30:19;6.50;97.00
45619;DHT22;31343;47.520;19.144;2023-02-26T15:32:45;6.60;97.30
45619;DHT22;31343;47.520;19.144;2023-02-26T15:35:18;6.60;97.10
45619;DHT22;31343;47.520;19.144;2023-02-26T15:38:03;6.60;97.20
45619;DHT22;31343;47.520;19.144;2023-02-26T15:40:36;6.70;97.70
45619;DHT22;31343;47.520;19.144;2023-02-26T15:43:04;6.70;97.90
45619;DHT22;31343;47.520;19.144;2023-02-26T15:45:36;6.70;97.60
45619;DHT22;31343;47.520;19.144;2023-02-26T15:48:16;6.70;98.00
45619;DHT22;31343;47.520;19.144;2023-02-26T15:50:45;6.70;98.00
45619;DHT22;31343;47.520;19.144;2023-02-26T15:53:17;6.70;98.20
45619;DHT22;31343;47.520;19.144;2023-02-26T15:55:49;6.80;98.00
45619;DHT22;31343;47.520;19.144;2023-02-26T15:58:28;6.70;98.50
45619;DHT22;31343;47.520;19.144;2023-02-26T16:00:55;6.80;98.00
45619;DHT22;31343;47.520;19.144;2023-02-26T16:03:35;6.70;97.90
45619;DHT22;31343;47.520;19.144;2023-02-26T16:06:01;6.70;97.20
45619;DHT22;31343;47.520;19.144;2023-02-26T16:08:27;6.70;97.30
45619;DHT22;31343;47.520;19.144;2023-02-26T16:10:56;6.60;97.20
45619;DHT22;31343;47.520;19.144;2023-02-26T16:13:34;6.60;97.20
45619;DHT22;31343;47.520;19.144;2023-02-26T16:16:07;6.60;97.10
45619;DHT22;31343;47.520;19.144;2023-02-26T16:18:36;6.60;97.00
45619;DHT22;31343;47.520;19.144;2023-02-26T16:21:05;6.60;97.20
45619;DHT22;31343;47.520;19.144;2023-02-26T16:23:44;6.50;97.40
45619;DHT22;31343;47.520;19.144;2023-02-26T16:26:19;6.50;97.70
45619;DHT22;31343;47.520;19.144;2023-02-26T16:28:48;6.50;97.70
45619;DHT22;31343;47.520;19.144;2023-02-26T16:31:22;6.50;97.50
45619;DHT22;31343;47.520;19.144;2023-02-26T16:33:56;6.50;97.10
45619;DHT22;31343;47.520;19.144;2023-02-26T16:36:25;6.50;97.20
45619;DHT22;31343;47.520;19.144;2023-02-26T16:39:14;6.50;97.30
45619;DHT22;31343;47.520;19.144;2023-02-26T16:41:46;6.50;97.40
45619;DHT22;31343;47.520;19.144;2023-02-26T16:44:44;6.50;97.90
45619;DHT22;31343;47.520;19.144;2023-02-26T16:47:10;6.40;97.80
45619;DHT22;31343;47.520;19.144;2023-02-26T16:49:38;6.40;97.40
45619;DHT22;31343;47.520;19.144;2023-02-26T16:52:06;6.40;97.70
45619;DHT22;31343;47.520;19.144;2023-02-26T16:54:40;6.30;97.70
45619;DHT22;31343;47.520;19.144;2023-02-26T16:57:26;6.40;98.20
45619;DHT22;31343;47.520;19.144;2023-02-26T16:59:57;6.30;98.10
45619;DHT22;31343;47.520;19.144;2023-02-26T17:02:26;6.30;98.30
45619;DHT22;31343;47.520;19.144;2023-02-26T17:04:58;6.40;98.10
45619;DHT22;31343;47.520;19.144;2023-02-26T17:07:33;6.30;98.50
45619;DHT22;31343;47.520;19.144;2023-02-26T17:13:03;6.40;98.20
45619;DHT22;31343;47.520;19.144;2023-02-26T17:15:34;6.30;98.30
45619;DHT22;31343;47.520;19.144;2023-02-26T17:18:00;6.40;98.50
45619;DHT22;31343;47.520;19.144;2023-02-26T17:20:27;6.30;98.60
45619;DHT22;31343;47.520;19.144;2023-02-26T17:22:54;6.40;98.40
45619;DHT22;31343;47.520;19.144;2023-02-26T17:25:21;6.30;98.50
45619;DHT22;31343;47.520;19.144;2023-02-26T17:27:50;6.30;98.50
45619;DHT22;31343;47.520;19.144;2023-02-26T17:30:22;6.30;98.70
45619;DHT22;31343;47.520;19.144;2023-02-26T17:32:48;6.30;98.90
45619;DHT22;31343;47.520;19.144;2023-02-26T17:35:16;6.20;98.90
45619;DHT22;31343;47.520;19.144;2023-02-26T17:37:43;6.20;99.10
45619;DHT22;31343;47.520;19.144;2023-02-26T17:40:25;6.10;99.20
45619;DHT22;31343;47.520;19.144;2023-02-26T17:42:52;6.20;99.50
45619;DHT22;31343;47.520;19.144;2023-02-26T17:45:18;6.10;99.70
45619;DHT22;31343;47.520;19.144;2023-02-26T17:47:45;6.10;99.80
45619;DHT22;31343;47.520;19.144;2023-02-26T17:52:49;6.00;99.90
45619;DHT22;31343;47.520;19.144;2023-02-26T17:55:15;6.00;99.90
45619;DHT22;31343;47.520;19.144;2023-02-26T17:57:41;6.00;99.90
45619;DHT22;31343;47.520;19.144;2023-02-26T18:00:08;6.00;99.90
45619;DHT22;31343;47.520;19.144;2023-02-26T18:02:34;6.00;99.90
45619;DHT22;31343;47.520;19.144;2023-02-26T18:05:00;5.90;99.90
45619;DHT22;31343;47.520;19.144;2023-02-26T18:07:26;5.90;99.90
45619;DHT22;31343;47.520;19.144;2023-02-26T18:09:52;5.90;99.90
45619;DHT22;31343;47.520;19.144;2023-02-26T18:12:21;5.80;99.90
45619;DHT22;31343;47.520;19.144;2023-02-26T18:14:47;5.80;99.90
45619;DHT22;31343;47.520;19.144;2023-02-26T18:17:19;5.80;99.90
45619;DHT22;31343;47.520;19.144;2023-02-26T18:19:46;5.70;99.90
45619;DHT22;31343;47.520;19.144;2023-02-26T18:22:19;5.70;99.90
45619;DHT22;31343;47.520;19.144;2023-02-26T18:24:45;5.60;99.90
45619;DHT22;31343;47.520;19.144;2023-02-26T18:27:17;5.60;99.90
45619;DHT22;31343;47.520;19.144;2023-02-26T18:29:44;5.60;99.90
45619;DHT22;31343;47.520;19.144;2023-02-26T18:32:23;5.50;99.90
45619;DHT22;31343;47.520;19.144;2023-02-26T18:34:50;5.50;99.90
45619;DHT22;31343;47.520;19.144;2023-02-26T18:37:25;5.60;99.90
45619;DHT22;31343;47.520;19.144;2023-02-26T18:39:51;5.60;99.90
45619;DHT22;31343;47.520;19.144;2023-02-26T18:42:18;5.60;99.90